首页
METAR-TAF:

METAR-TAF

机场 :

礦水城機場

礦水城, 俄罗斯

纬度: 44-14N, 经度: 043-04E, 海拔: 314米

当前天气观测

该预报发布于17分钟前的21:00 UTC
风速6节,风向西北
温度 -5°C
湿度 93%
气压 1007 hPa
能见度10公里或以上

METAR: URMM 222100Z 31003MPS 9999 NSC M05/M06 Q1007 R30/090070 NOSIG RMK QFE727/0970

时间: 01:17 (21:17 UTC)

预报

该预报发布于1小时和17分钟前的20:00 UTC
预报有效从22日的 21点(UTC)到 23日的 21点(UTC)
风速6节,风向西,有时为16节阵风
能见度10公里或以上
多云层高于2000英尺
短暂存在
从 22日的 21点(UTC)到 23日的 07点(UTC)
能見度: 3100
多云层高于1100英尺
轻雾
成为
从 23日的 07点(UTC)到 23日的 09点(UTC)
风速14节,风向西转西北,有时为27节阵风
短暂存在
从 23日的 09点(UTC)到 23日的 21点(UTC)
能見度: 6000
多云层高于1100英尺
多云层高于2000英尺, 积雨云.
小阵雨, 雪

TAF: URMM 222000Z 2221/2321 28003G08MPS 9999 BKN020 TX03/2312Z TNM05/2303Z TEMPO 2221/2307 3100 BR BKN011 BECMG 2307/2309 29007G14MPS TEMPO 2309/2321 6000 -SHRASN BKN011 BKN020CB

超过4000个机场的气象观测和天气预报(METAR&TAF报告)。

可查询的气象台以黄色和红色小点在地图上表示。

将鼠标移到小点上方,可查看气象台名称。

然后点击查看天气观测和预报。

如需切换地图:点击带黑十字的绿色按钮放大地图;点击带横线的绿色按钮缩小地图;或者点击绿色箭头查看邻近地区的地图。


METAR-TAF: